createdAt,value
2019-05-22T00:00:47.582Z,99.99
2019-05-22T00:01:47.588Z,99.99
2019-05-22T00:02:47.599Z,99.99
2019-05-22T00:03:47.608Z,99.99
2019-05-22T00:04:47.611Z,99.99
2019-05-22T00:05:47.626Z,99.99
2019-05-22T00:06:47.647Z,99.99
2019-05-22T00:07:47.786Z,99.99
2019-05-22T00:08:47.643Z,99.99
2019-05-22T00:09:47.652Z,99.99
2019-05-22T00:10:47.662Z,99.99
2019-05-22T00:11:47.666Z,99.99
2019-05-22T00:12:47.669Z,99.99
2019-05-22T00:13:47.681Z,99.99
2019-05-22T00:14:47.684Z,99.99
2019-05-22T00:15:47.691Z,99.99
2019-05-22T00:16:47.705Z,99.99
2019-05-22T00:17:47.817Z,99.99
2019-05-22T00:18:47.715Z,99.99
2019-05-22T00:19:47.728Z,99.99
2019-05-22T00:20:47.751Z,99.99
2019-05-22T00:21:47.733Z,99.99
2019-05-22T00:22:47.749Z,99.99
2019-05-22T00:23:47.765Z,99.99
2019-05-22T00:24:47.765Z,99.99
2019-05-22T00:25:47.766Z,99.99
2019-05-22T00:26:47.777Z,99.99
2019-05-22T00:27:47.785Z,99.99
2019-05-22T00:28:47.788Z,99.99
2019-05-22T00:29:47.820Z,99.99
2019-05-22T00:30:47.794Z,99.99
2019-05-22T00:31:47.802Z,99.99
2019-05-22T00:32:47.822Z,99.99
2019-05-22T00:33:47.830Z,99.99
2019-05-22T00:34:47.836Z,99.99
2019-05-22T00:35:47.854Z,99.99
2019-05-22T00:36:47.849Z,99.99
2019-05-22T00:37:47.863Z,99.99
2019-05-22T00:38:47.857Z,99.99
2019-05-22T00:39:47.876Z,99.99
2019-05-22T00:40:47.893Z,99.99
2019-05-22T00:41:47.893Z,99.99
2019-05-22T00:43:02.874Z,99.99
2019-05-22T00:43:47.907Z,99.99
2019-05-22T00:44:47.922Z,99.99
2019-05-22T00:45:47.909Z,99.99
2019-05-22T00:46:47.919Z,99.99
2019-05-22T00:47:47.932Z,99.99
2019-05-22T00:48:47.934Z,99.99
2019-05-22T00:49:47.943Z,99.99
2019-05-22T00:50:47.955Z,99.99
2019-05-22T00:51:47.964Z,99.99
2019-05-22T00:52:47.970Z,99.99
2019-05-22T00:53:47.987Z,99.99
2019-05-22T00:54:47.982Z,99.99
2019-05-22T00:55:48.010Z,99.99
2019-05-22T00:56:47.996Z,99.99
2019-05-22T00:57:48.007Z,99.99
2019-05-22T00:58:48.017Z,99.99
2019-05-22T00:59:48.019Z,99.99
2019-05-22T01:00:48.031Z,99.99
2019-05-22T01:01:48.031Z,99.99
2019-05-22T01:02:48.043Z,99.99
2019-05-22T01:03:48.048Z,99.99
2019-05-22T01:04:48.060Z,99.99
2019-05-22T01:05:48.068Z,99.99
2019-05-22T01:06:48.082Z,99.99
2019-05-22T01:07:48.078Z,99.99
2019-05-22T01:08:48.086Z,99.99
2019-05-22T01:09:48.096Z,99.99
2019-05-22T01:10:48.098Z,99.99
2019-05-22T01:11:48.176Z,99.99
2019-05-22T01:12:48.107Z,99.99
2019-05-22T01:13:48.132Z,99.99
2019-05-22T01:14:48.132Z,99.99
2019-05-22T01:15:48.137Z,99.99
2019-05-22T01:16:48.160Z,99.99
2019-05-22T01:17:48.156Z,99.99
2019-05-22T01:18:48.161Z,99.99
2019-05-22T01:19:48.163Z,99.99
2019-05-22T01:20:48.175Z,99.99
2019-05-22T01:21:48.185Z,99.99
2019-05-22T01:22:48.202Z,99.99
2019-05-22T01:23:48.195Z,99.99
2019-05-22T01:24:48.217Z,99.99
2019-05-22T01:25:48.224Z,99.99
2019-05-22T01:26:48.297Z,99.99
2019-05-22T01:27:48.240Z,99.99
2019-05-22T01:28:48.226Z,99.99
2019-05-22T01:29:48.247Z,99.99
2019-05-22T01:30:48.248Z,99.99
2019-05-22T01:31:48.268Z,99.99
2019-05-22T01:32:48.269Z,99.99
2019-05-22T01:33:48.264Z,99.99
2019-05-22T01:34:48.287Z,99.99
2019-05-22T01:35:48.275Z,99.99
2019-05-22T01:36:48.285Z,99.99
2019-05-22T01:37:48.312Z,99.99
2019-05-22T01:38:48.306Z,99.99
2019-05-22T01:39:48.371Z,99.99
2019-05-22T01:40:48.318Z,99.99
2019-05-22T01:41:48.332Z,99.99
2019-05-22T01:42:48.330Z,99.99
2019-05-22T01:43:48.337Z,99.99
2019-05-22T01:45:01.630Z,99.99
2019-05-22T01:45:48.360Z,99.99
2019-05-22T01:46:48.365Z,99.99
2019-05-22T01:47:48.378Z,99.99
2019-05-22T01:48:48.384Z,99.99
2019-05-22T01:49:48.496Z,99.99
2019-05-22T01:50:48.393Z,99.99
2019-05-22T01:51:48.400Z,99.99
2019-05-22T01:52:48.413Z,99.99
2019-05-22T01:53:48.417Z,99.99
2019-05-22T01:54:48.425Z,99.99
2019-05-22T01:55:48.428Z,99.99
2019-05-22T01:56:48.448Z,99.99
2019-05-22T01:57:48.451Z,99.99
2019-05-22T01:58:48.452Z,99.99
2019-05-22T01:59:48.579Z,99.99
2019-05-22T02:00:48.464Z,99.99
2019-05-22T02:01:48.522Z,99.99
2019-05-22T02:02:48.476Z,99.99
2019-05-22T02:03:48.492Z,99.99
2019-05-22T02:04:48.489Z,99.99
2019-05-22T02:05:48.506Z,99.99
2019-05-22T02:06:48.511Z,99.99
2019-05-22T02:07:48.521Z,99.99
2019-05-22T02:08:48.522Z,99.99
2019-05-22T02:09:48.541Z,99.99
2019-05-22T02:10:48.541Z,99.99
2019-05-22T02:11:48.547Z,99.99
2019-05-22T02:12:48.552Z,99.99
2019-05-22T02:13:48.562Z,99.99
2019-05-22T02:14:48.571Z,99.99
2019-05-22T02:15:48.572Z,99.99
2019-05-22T02:16:56.665Z,99.99
2019-05-22T02:17:48.694Z,99.99
2019-05-22T02:18:48.588Z,99.99
2019-05-22T02:19:48.615Z,99.99
2019-05-22T02:20:49.594Z,99.99
2019-05-22T02:21:48.621Z,99.99
2019-05-22T02:22:48.630Z,99.99
2019-05-22T02:23:48.633Z,99.99
2019-05-22T02:24:48.637Z,99.99
2019-05-22T02:25:48.644Z,99.99
2019-05-22T02:26:48.663Z,99.99
2019-05-22T02:27:48.689Z,99.99
2019-05-22T02:28:48.671Z,99.99
2019-05-22T02:29:48.677Z,99.99
2019-05-22T02:30:48.688Z,99.99
2019-05-22T02:31:48.700Z,99.99
2019-05-22T02:32:48.699Z,99.99
2019-05-22T02:33:48.704Z,99.99
2019-05-22T02:34:48.717Z,99.99
2019-05-22T02:35:48.721Z,99.99
2019-05-22T02:36:48.727Z,99.99
2019-05-22T02:37:48.733Z,99.99
2019-05-22T02:38:48.744Z,99.99
2019-05-22T02:39:48.747Z,99.99
2019-05-22T02:40:48.740Z,99.99
2019-05-22T02:41:48.767Z,99.99
2019-05-22T02:42:48.773Z,99.99
2019-05-22T02:43:48.785Z,99.99
2019-05-22T02:44:48.828Z,99.99
2019-05-22T02:45:48.791Z,99.99
2019-05-22T02:46:48.800Z,99.99
2019-05-22T02:47:48.805Z,99.99
2019-05-22T02:48:48.812Z,99.99
2019-05-22T02:49:48.822Z,99.99
2019-05-22T02:50:48.884Z,99.99
2019-05-22T02:51:48.836Z,99.99
2019-05-22T02:52:48.841Z,99.99
2019-05-22T02:53:48.883Z,99.99
2019-05-22T02:54:48.858Z,99.99
2019-05-22T02:55:48.895Z,99.99
2019-05-22T02:56:48.868Z,99.99
2019-05-22T02:57:48.878Z,99.99
2019-05-22T02:58:48.886Z,99.99
2019-05-22T02:59:48.896Z,99.99
2019-05-22T03:00:48.893Z,99.99
2019-05-22T03:01:48.903Z,99.99
2019-05-22T03:02:48.909Z,99.99
2019-05-22T03:03:48.914Z,99.99
2019-05-22T03:04:48.930Z,99.99
2019-05-22T03:05:49.014Z,99.99
2019-05-22T03:06:48.951Z,99.99
2019-05-22T03:07:48.948Z,99.99
2019-05-22T03:08:48.953Z,99.99
2019-05-22T03:09:48.959Z,99.99
2019-05-22T03:10:48.972Z,99.99
2019-05-22T03:11:48.980Z,99.99
2019-05-22T03:12:48.993Z,99.99
2019-05-22T03:13:48.995Z,99.99
2019-05-22T03:14:49.051Z,99.99
2019-05-22T03:15:49.002Z,99.99
2019-05-22T03:16:49.012Z,99.99
2019-05-22T03:17:49.014Z,99.99
2019-05-22T03:19:07.598Z,99.99
2019-05-22T03:19:49.052Z,99.99
2019-05-22T03:20:49.116Z,99.99
2019-05-22T03:21:49.049Z,99.99
2019-05-22T03:22:49.050Z,99.99
2019-05-22T03:23:49.059Z,99.99
2019-05-22T03:24:49.071Z,99.99
2019-05-22T03:25:49.077Z,99.99
2019-05-22T03:26:49.079Z,99.99
2019-05-22T03:27:49.101Z,99.99
2019-05-22T03:28:49.110Z,99.99
2019-05-22T03:29:49.101Z,99.99
2019-05-22T03:30:49.115Z,99.99
2019-05-22T03:31:49.118Z,99.99
2019-05-22T03:32:49.130Z,99.99
2019-05-22T03:33:49.131Z,99.99
2019-05-22T03:34:49.138Z,99.99
2019-05-22T03:35:49.164Z,99.99
2019-05-22T03:36:49.154Z,99.99
2019-05-22T03:37:49.158Z,99.99
2019-05-22T03:38:49.168Z,99.99
2019-05-22T03:39:49.173Z,99.99
2019-05-22T03:40:49.182Z,99.99
2019-05-22T03:41:49.209Z,99.99
2019-05-22T03:42:49.196Z,99.99
2019-05-22T03:43:49.202Z,99.99
2019-05-22T03:44:49.210Z,99.99
2019-05-22T03:45:49.218Z,99.99
2019-05-22T03:46:49.217Z,99.99
2019-05-22T03:47:49.230Z,99.99
2019-05-22T03:48:49.250Z,99.99
2019-05-22T03:49:49.241Z,99.99
2019-05-22T03:50:49.252Z,99.99
2019-05-22T03:51:49.252Z,99.99
2019-05-22T03:52:49.268Z,99.99
2019-05-22T03:53:49.267Z,99.99
2019-05-22T03:54:49.281Z,99.99
2019-05-22T03:55:49.292Z,99.99
2019-05-22T03:56:49.352Z,99.99
2019-05-22T03:57:49.300Z,99.99
2019-05-22T03:58:49.316Z,99.99
2019-05-22T03:59:49.321Z,99.99
2019-05-22T04:00:49.313Z,99.99
2019-05-22T04:01:49.322Z,99.99
2019-05-22T04:02:49.331Z,99.99
2019-05-22T04:03:49.338Z,99.99
2019-05-22T04:04:49.357Z,99.99
2019-05-22T04:05:49.364Z,99.99
2019-05-22T04:06:49.351Z,99.99
2019-05-22T04:07:49.369Z,99.99
2019-05-22T04:08:49.381Z,99.99
2019-05-22T04:09:49.380Z,99.99
2019-05-22T04:10:49.387Z,99.99
2019-05-22T04:11:49.397Z,99.99
2019-05-22T04:12:49.406Z,99.99
2019-05-22T04:13:49.415Z,99.99
2019-05-22T04:14:49.434Z,99.99
2019-05-22T04:15:49.425Z,99.99
2019-05-22T04:16:49.436Z,99.99
2019-05-22T04:17:49.438Z,99.99
2019-05-22T04:18:49.436Z,99.99
2019-05-22T04:19:51.661Z,99.99
2019-05-22T04:20:49.459Z,99.99
2019-05-22T04:21:49.467Z,99.99
2019-05-22T04:22:49.470Z,99.99
2019-05-22T04:23:49.480Z,99.99
2019-05-22T04:24:49.489Z,99.99
2019-05-22T04:25:53.162Z,99.99
2019-05-22T04:26:49.497Z,99.99
2019-05-22T04:27:49.510Z,99.99
2019-05-22T04:28:49.513Z,99.99
2019-05-22T04:29:49.565Z,99.99
2019-05-22T04:30:49.546Z,99.99
2019-05-22T04:31:49.540Z,99.99
2019-05-22T04:32:49.541Z,99.99
2019-05-22T04:33:49.554Z,99.99
2019-05-22T04:34:49.559Z,99.99
2019-05-22T04:35:49.562Z,99.99
2019-05-22T04:36:49.572Z,99.99
2019-05-22T04:37:49.582Z,99.99
2019-05-22T04:38:49.584Z,99.99
2019-05-22T04:39:49.584Z,99.99
2019-05-22T04:40:49.625Z,99.99
2019-05-22T04:41:49.602Z,99.99
2019-05-22T04:42:49.618Z,99.99
2019-05-22T04:43:49.628Z,99.99
2019-05-22T04:44:49.634Z,99.99
2019-05-22T04:45:49.635Z,99.99
2019-05-22T04:46:49.639Z,99.99
2019-05-22T04:47:49.650Z,99.99
2019-05-22T04:48:49.651Z,99.99
2019-05-22T04:50:06.213Z,99.99
2019-05-22T04:50:49.683Z,99.99
2019-05-22T04:51:49.675Z,99.99
2019-05-22T04:52:49.680Z,99.99
2019-05-22T04:53:49.689Z,99.99
2019-05-22T04:54:52.496Z,99.99
2019-05-22T04:55:49.702Z,99.99
2019-05-22T04:56:49.720Z,99.99
2019-05-22T04:57:49.721Z,99.99
2019-05-22T04:58:49.719Z,99.99
2019-05-22T04:59:49.729Z,99.99
2019-05-22T05:00:49.734Z,99.99
2019-05-22T05:01:49.741Z,99.99
2019-05-22T05:02:49.753Z,99.99
2019-05-22T05:03:49.747Z,99.99
2019-05-22T05:04:49.772Z,99.99
2019-05-22T05:05:49.776Z,99.99
2019-05-22T05:06:49.891Z,99.99
2019-05-22T05:07:49.776Z,99.99
2019-05-22T05:08:49.795Z,99.99
2019-05-22T05:09:49.798Z,99.99
2019-05-22T05:10:49.850Z,99.99
2019-05-22T05:11:49.811Z,99.99
2019-05-22T05:12:49.821Z,99.99
2019-05-22T05:13:49.821Z,99.99
2019-05-22T05:14:49.841Z,99.99
2019-05-22T05:15:49.839Z,99.99
2019-05-22T05:16:49.846Z,99.99
2019-05-22T05:17:49.856Z,99.99
2019-05-22T05:18:49.863Z,99.99
2019-05-22T05:19:49.875Z,99.99
2019-05-22T05:20:49.932Z,99.99
2019-05-22T05:21:49.889Z,99.99
2019-05-22T05:22:49.892Z,99.99
2019-05-22T05:23:49.911Z,99.99
2019-05-22T05:24:49.897Z,99.99
2019-05-22T05:25:49.914Z,99.99
2019-05-22T05:26:49.921Z,99.99
2019-05-22T05:27:49.932Z,99.99
2019-05-22T05:28:49.944Z,99.99
2019-05-22T05:29:49.942Z,99.99
2019-05-22T05:30:49.953Z,99.99
2019-05-22T05:31:49.949Z,99.99
2019-05-22T05:32:49.962Z,99.99
2019-05-22T05:33:49.969Z,99.99
2019-05-22T05:34:49.975Z,99.99
2019-05-22T05:35:49.984Z,99.99
2019-05-22T05:36:49.992Z,99.99
2019-05-22T05:37:49.996Z,99.99
2019-05-22T05:38:49.989Z,99.99
2019-05-22T05:39:50.011Z,99.99
2019-05-22T05:40:50.018Z,99.99
2019-05-22T05:41:50.018Z,99.99
2019-05-22T05:42:50.032Z,99.99
2019-05-22T05:43:50.032Z,99.99
2019-05-22T05:44:50.045Z,99.99
2019-05-22T05:45:50.056Z,99.99
2019-05-22T05:46:50.057Z,99.99
2019-05-22T05:47:50.065Z,99.99
2019-05-22T05:48:50.073Z,99.99
2019-05-22T05:49:50.074Z,99.99
2019-05-22T05:50:50.095Z,99.99
2019-05-22T05:51:50.086Z,99.99
2019-05-22T05:52:50.102Z,99.99
2019-05-22T05:53:50.105Z,99.99
2019-05-22T05:54:50.117Z,99.99
2019-05-22T05:55:50.124Z,99.99
2019-05-22T05:56:50.133Z,99.99
2019-05-22T05:57:50.137Z,99.99
2019-05-22T05:58:50.150Z,99.99
2019-05-22T05:59:50.154Z,99.99
2019-05-22T06:00:50.167Z,99.99
2019-05-22T06:01:50.176Z,99.99
2019-05-22T06:02:56.637Z,99.99
2019-05-22T06:03:50.178Z,99.99
2019-05-22T06:04:50.186Z,99.99
2019-05-22T06:05:50.197Z,99.99
2019-05-22T06:06:50.207Z,99.99
2019-05-22T06:07:50.205Z,99.99
2019-05-22T06:08:50.220Z,99.99
2019-05-22T06:09:50.221Z,99.99
2019-05-22T06:10:50.242Z,99.99
2019-05-22T06:11:50.295Z,99.99
2019-05-22T06:12:50.269Z,99.99
2019-05-22T06:13:50.252Z,99.99
2019-05-22T06:14:50.267Z,99.99
2019-05-22T06:15:50.284Z,99.99
2019-05-22T06:16:50.279Z,99.99
2019-05-22T06:17:50.281Z,99.99
2019-05-22T06:18:50.290Z,99.99
2019-05-22T06:19:50.303Z,99.99
2019-05-22T06:21:03.259Z,99.99
2019-05-22T06:21:50.312Z,99.99
2019-05-22T06:22:50.321Z,99.99
2019-05-22T06:23:50.327Z,99.99
2019-05-22T06:24:50.337Z,99.99
2019-05-22T06:25:50.343Z,99.99
2019-05-22T06:26:50.365Z,99.99
2019-05-22T06:27:50.371Z,99.99
2019-05-22T06:28:50.366Z,99.99
2019-05-22T06:29:50.367Z,99.99
2019-05-22T06:31:50.393Z,99.99
2019-05-22T06:32:50.396Z,99.99
2019-05-22T06:33:50.402Z,99.99
2019-05-22T06:34:50.414Z,99.99
2019-05-22T06:35:50.435Z,99.99
2019-05-22T06:36:50.434Z,99.99
2019-05-22T06:37:50.437Z,99.99
2019-05-22T06:38:50.446Z,99.99
2019-05-22T06:39:50.504Z,99.99
2019-05-22T06:40:50.463Z,99.99
2019-05-22T06:41:50.530Z,99.99
2019-05-22T06:42:50.478Z,99.99
2019-05-22T06:43:50.494Z,99.99
2019-05-22T06:44:50.495Z,99.99
2019-05-22T06:45:50.500Z,99.99
2019-05-22T06:46:50.502Z,99.99
2019-05-22T06:47:50.521Z,99.99
2019-05-22T06:48:50.529Z,99.99
2019-05-22T06:49:50.668Z,99.99
2019-05-22T06:50:50.540Z,99.99
2019-05-22T06:51:50.605Z,99.99
2019-05-22T06:52:50.643Z,99.99
2019-05-22T06:53:50.669Z,99.99
2019-05-22T06:54:50.844Z,99.99
2019-05-22T06:55:50.584Z,99.99
2019-05-22T06:56:50.642Z,99.99
2019-05-22T06:57:50.631Z,99.99
2019-05-22T06:58:50.684Z,99.99
2019-05-22T07:00:10.867Z,99.99
2019-05-22T07:00:50.842Z,99.99
2019-05-22T07:01:50.658Z,99.99
2019-05-22T07:02:50.631Z,99.99
2019-05-22T07:03:50.636Z,99.99
2019-05-22T07:04:50.651Z,99.99
2019-05-22T07:05:50.750Z,99.99
2019-05-22T07:06:50.665Z,99.99
2019-05-22T07:07:50.669Z,99.99
2019-05-22T07:08:50.673Z,99.99
2019-05-22T07:09:50.685Z,99.99
2019-05-22T07:10:50.691Z,99.99
2019-05-22T07:11:50.713Z,99.99
2019-05-22T07:12:51.182Z,99.99
2019-05-22T07:13:50.713Z,99.99
2019-05-22T07:14:50.725Z,99.99
2019-05-22T07:15:50.726Z,99.99
2019-05-22T07:17:50.756Z,99.99
2019-05-22T07:18:50.751Z,99.99
2019-05-22T07:19:50.766Z,99.99
2019-05-22T07:20:50.781Z,99.99
2019-05-22T07:21:50.781Z,99.99
2019-05-22T07:22:50.799Z,99.99
2019-05-22T07:23:50.789Z,99.99
2019-05-22T07:24:50.813Z,99.99
2019-05-22T07:25:50.810Z,99.99
2019-05-22T07:26:50.818Z,99.99
2019-05-22T07:27:50.832Z,99.99
2019-05-22T07:28:50.935Z,99.99
2019-05-22T07:29:50.831Z,99.99
2019-05-22T07:30:50.867Z,99.99
2019-05-22T07:31:50.850Z,99.99
2019-05-22T07:32:50.863Z,99.99
2019-05-22T07:33:50.869Z,99.99
2019-05-22T07:34:50.873Z,99.99
2019-05-22T07:36:08.479Z,99.99
2019-05-22T07:36:50.887Z,99.99
2019-05-22T07:37:50.911Z,99.99
2019-05-22T07:38:50.902Z,99.99
2019-05-22T07:39:50.910Z,99.99
2019-05-22T07:40:51.693Z,99.99
2019-05-22T07:41:50.934Z,99.99
2019-05-22T07:42:50.953Z,99.99
2019-05-22T07:43:50.950Z,99.99
2019-05-22T07:44:50.948Z,99.99
2019-05-22T07:45:50.961Z,99.99
2019-05-22T07:46:50.968Z,99.99
2019-05-22T07:47:50.972Z,99.99
2019-05-22T07:48:50.974Z,99.99
2019-05-22T07:49:50.998Z,99.99
2019-05-22T07:50:51.106Z,99.99
2019-05-22T07:51:58.873Z,99.99
2019-05-22T07:52:51.007Z,99.99
2019-05-22T07:53:51.015Z,99.99
2019-05-22T07:54:51.028Z,99.99
2019-05-22T07:55:51.062Z,99.99
2019-05-22T07:56:51.045Z,99.99
2019-05-22T07:57:51.051Z,99.99
2019-05-22T07:58:51.111Z,99.99
2019-05-22T07:59:51.061Z,99.99
2019-05-22T08:00:51.093Z,99.99
2019-05-22T08:01:51.096Z,99.99
2019-05-22T08:02:51.133Z,99.99
2019-05-22T08:03:51.102Z,99.99
2019-05-22T08:04:51.116Z,99.99
2019-05-22T08:05:51.148Z,99.99
2019-05-22T08:06:51.127Z,99.99
2019-05-22T08:07:51.150Z,99.99
2019-05-22T08:08:51.162Z,99.99
2019-05-22T08:09:51.159Z,99.99
2019-05-22T08:10:51.151Z,99.99
2019-05-22T08:11:51.517Z,99.99
2019-05-22T08:12:51.178Z,99.99
2019-05-22T08:13:51.169Z,99.99
2019-05-22T08:14:51.223Z,99.99
2019-05-22T08:15:51.197Z,99.99
2019-05-22T08:16:51.197Z,99.99
2019-05-22T08:17:53.995Z,99.67
2019-05-22T08:18:51.269Z,98.71
2019-05-22T08:19:51.247Z,97.95
2019-05-22T08:20:51.234Z,98.14
2019-05-22T08:22:04.673Z,98.81
2019-05-22T08:22:51.259Z,98.81
2019-05-22T08:23:51.260Z,98.33
2019-05-22T08:24:51.270Z,98.33
2019-05-22T08:25:51.282Z,96.70
2019-05-22T08:26:54.477Z,96.32
2019-05-22T08:27:51.293Z,96.03
2019-05-22T08:28:51.636Z,95.94
2019-05-22T08:29:51.314Z,95.22
2019-05-22T08:30:51.318Z,94.41
2019-05-22T08:31:51.332Z,94.98
2019-05-22T08:32:51.337Z,95.56
2019-05-22T08:33:51.350Z,96.03
2019-05-22T08:34:51.358Z,95.84
2019-05-22T08:35:51.368Z,96.13
2019-05-22T08:36:51.373Z,96.03
2019-05-22T08:37:51.385Z,95.75
2019-05-22T08:38:51.381Z,94.89
2019-05-22T08:39:51.415Z,95.56
2019-05-22T08:40:51.409Z,95.65
2019-05-22T08:41:51.496Z,94.98
2019-05-22T08:42:51.487Z,95.94
2019-05-22T08:44:13.616Z,96.56
2019-05-22T08:44:51.442Z,97.33
2019-05-22T08:45:51.573Z,97.52
2019-05-22T08:46:51.508Z,98.28
2019-05-22T08:47:51.468Z,98.85
2019-05-22T08:48:51.534Z,99.14
2019-05-22T08:49:51.486Z,99.33
2019-05-22T08:50:51.500Z,99.71
2019-05-22T08:51:51.502Z,99.99
2019-05-22T08:52:51.509Z,99.99
2019-05-22T08:53:51.515Z,99.99
2019-05-22T08:54:51.516Z,99.99
2019-05-22T08:55:51.536Z,99.99
2019-05-22T08:56:51.598Z,99.99
2019-05-22T08:57:51.561Z,99.99
2019-05-22T08:58:51.560Z,99.99
2019-05-22T08:59:51.570Z,99.99
2019-05-22T09:00:51.572Z,99.99
2019-05-22T09:01:51.585Z,99.99
2019-05-22T09:02:51.595Z,99.99
2019-05-22T09:03:51.712Z,99.99
2019-05-22T09:04:51.613Z,99.99
2019-05-22T09:05:52.122Z,99.99
2019-05-22T09:06:51.650Z,99.99
2019-05-22T09:07:51.638Z,99.99
2019-05-22T09:08:51.639Z,99.99
2019-05-22T09:09:51.646Z,99.99
2019-05-22T09:10:51.657Z,99.99
2019-05-22T09:11:51.662Z,99.99
2019-05-22T09:12:51.693Z,99.52
2019-05-22T09:13:51.700Z,99.14
2019-05-22T09:14:51.689Z,98.75
2019-05-22T09:15:51.701Z,99.04
2019-05-22T09:16:51.713Z,98.66
2019-05-22T09:17:51.719Z,98.28
2019-05-22T09:18:51.803Z,98.47
2019-05-22T09:19:51.794Z,98.57
2019-05-22T09:20:51.736Z,97.95
2019-05-22T09:21:51.744Z,97.08
2019-05-22T09:22:51.755Z,96.99
2019-05-22T09:23:51.772Z,96.03
2019-05-22T09:24:51.783Z,95.75
2019-05-22T09:25:51.803Z,94.98
2019-05-22T09:26:51.835Z,95.65
2019-05-22T09:27:51.802Z,95.75
2019-05-22T09:28:51.816Z,95.65
2019-05-22T09:29:51.808Z,95.46
2019-05-22T09:30:51.833Z,95.22
2019-05-22T09:31:51.833Z,95.31
2019-05-22T09:32:51.845Z,94.12
2019-05-22T09:33:51.864Z,94.41
2019-05-22T09:34:51.860Z,93.88
2019-05-22T09:35:51.930Z,94.07
2019-05-22T09:36:51.882Z,93.50
2019-05-22T09:37:51.887Z,92.73
2019-05-22T09:38:52.806Z,92.44
2019-05-22T09:39:51.958Z,92.16
2019-05-22T09:40:51.909Z,91.83
2019-05-22T09:41:51.925Z,91.35
2019-05-22T09:42:51.935Z,91.83
2019-05-22T09:43:52.007Z,92.02
2019-05-22T09:44:52.059Z,91.92
2019-05-22T09:45:51.960Z,91.83
2019-05-22T09:46:51.962Z,92.11
2019-05-22T09:47:51.978Z,91.68
2019-05-22T09:48:51.982Z,90.15
2019-05-22T09:49:51.994Z,89.67
2019-05-22T09:50:52.014Z,89.90
2019-05-22T09:51:52.026Z,89.52
2019-05-22T09:52:57.652Z,89.81
2019-05-22T09:53:52.034Z,89.81
2019-05-22T09:54:52.087Z,88.66
2019-05-22T09:55:52.057Z,88.28
2019-05-22T09:56:52.057Z,88.09
2019-05-22T09:57:52.072Z,87.51
2019-05-22T09:58:52.089Z,87.46
2019-05-22T09:59:52.085Z,87.65
2019-05-22T10:00:52.110Z,85.93
2019-05-22T10:01:52.108Z,86.21
2019-05-22T10:02:52.115Z,85.88
2019-05-22T10:03:52.120Z,84.53
2019-05-22T10:04:52.129Z,84.44
2019-05-22T10:05:52.278Z,84.34
2019-05-22T10:06:52.164Z,83.95
2019-05-22T10:08:00.435Z,83.58
2019-05-22T10:08:52.180Z,83.00
2019-05-22T10:09:52.190Z,83.42
2019-05-22T10:10:53.160Z,82.56
2019-05-22T10:11:52.213Z,81.98
2019-05-22T10:12:52.220Z,82.27
2019-05-22T10:13:52.347Z,81.60
2019-05-22T10:14:52.500Z,81.41
2019-05-22T10:15:52.256Z,80.97
2019-05-22T10:16:52.269Z,80.64
2019-05-22T10:17:52.305Z,80.87
2019-05-22T10:18:53.611Z,81.35
2019-05-22T10:19:52.300Z,80.11
2019-05-22T10:20:52.323Z,79.72
2019-05-22T10:21:52.335Z,79.59
2019-05-22T10:22:52.369Z,79.88
2019-05-22T10:23:52.343Z,80.93
2019-05-22T10:24:52.366Z,81.85
2019-05-22T10:25:52.378Z,81.60
2019-05-22T10:26:52.400Z,80.49
2019-05-22T10:27:52.398Z,79.38
2019-05-22T10:28:52.409Z,78.27
2019-05-22T10:29:52.427Z,77.21
2019-05-22T10:30:52.785Z,76.14
2019-05-22T10:31:52.447Z,75.37
2019-05-22T10:32:52.464Z,74.94
2019-05-22T10:33:52.592Z,75.23
2019-05-22T10:34:52.490Z,75.42
2019-05-22T10:35:52.505Z,74.90
2019-05-22T10:36:52.510Z,75.20
2019-05-22T10:38:52.550Z,75.10
2019-05-22T10:39:52.551Z,75.38
2019-05-22T10:40:52.562Z,75.67
2019-05-22T10:41:52.578Z,76.15
2019-05-22T10:42:52.696Z,76.15
2019-05-22T10:43:52.614Z,76.02
2019-05-22T10:44:52.610Z,76.31
2019-05-22T10:45:52.624Z,76.31
2019-05-22T10:46:52.643Z,76.54
2019-05-22T10:47:52.653Z,75.62
2019-05-22T10:48:52.655Z,74.27
2019-05-22T10:49:52.690Z,73.19
2019-05-22T10:50:52.690Z,70.43
2019-05-22T10:51:52.704Z,68.77
2019-05-22T10:52:54.545Z,66.27
2019-05-22T10:53:52.729Z,63.89
2019-05-22T10:54:55.938Z,62.48
2019-05-22T10:55:52.772Z,60.61
2019-05-22T10:56:52.780Z,58.45
2019-05-22T10:57:52.806Z,57.29
2019-05-22T10:58:52.818Z,57.29
2019-05-22T10:59:52.818Z,56.35
2019-05-22T11:00:52.844Z,55.89
2019-05-22T11:01:52.856Z,55.53
2019-05-22T11:02:52.872Z,54.27
2019-05-22T11:03:52.888Z,54.99
2019-05-22T11:04:52.905Z,56.84
2019-05-22T11:06:06.462Z,58.75
2019-05-22T11:06:52.936Z,59.48
2019-05-22T11:07:52.955Z,60.28
2019-05-22T11:08:52.978Z,59.52
2019-05-22T11:09:52.984Z,58.90
2019-05-22T11:10:53.001Z,57.77
2019-05-22T11:11:53.018Z,56.09
2019-05-22T11:12:53.038Z,55.47
2019-05-22T11:14:01.188Z,55.90
2019-05-22T11:14:53.066Z,57.97
2019-05-22T11:15:53.079Z,60.32
2019-05-22T11:16:53.110Z,59.45
2019-05-22T11:17:53.119Z,58.68
2019-05-22T11:18:53.138Z,57.57
2019-05-22T11:19:53.151Z,56.09
2019-05-22T11:20:53.151Z,55.15
2019-05-22T11:21:56.828Z,55.55
2019-05-22T11:22:53.191Z,56.90
2019-05-22T11:23:53.432Z,56.54
2019-05-22T11:24:53.216Z,55.43
2019-05-22T11:25:53.352Z,54.83
2019-05-22T11:26:53.262Z,54.66
2019-05-22T11:27:53.280Z,54.17
2019-05-22T11:28:53.283Z,53.14
2019-05-22T11:29:53.295Z,51.74
2019-05-22T11:30:53.310Z,50.89
2019-05-22T11:31:53.339Z,50.07
2019-05-22T11:32:53.357Z,48.44
2019-05-22T11:33:53.366Z,48.61
2019-05-22T11:34:53.400Z,48.97
2019-05-22T11:35:53.392Z,48.39
2019-05-22T11:36:53.440Z,49.10
2019-05-22T11:37:53.440Z,52.70
2019-05-22T11:38:53.465Z,55.45
2019-05-22T11:39:53.476Z,54.83
2019-05-22T11:40:53.487Z,54.25
2019-05-22T11:41:53.503Z,53.79
2019-05-22T11:42:53.542Z,53.21
2019-05-22T11:43:53.538Z,53.31
2019-05-22T11:44:53.580Z,53.23
2019-05-22T11:45:53.580Z,51.32
2019-05-22T11:46:53.585Z,50.72
2019-05-22T11:47:53.602Z,49.95
2019-05-22T11:48:53.648Z,50.26
2019-05-22T11:49:53.946Z,51.66
2019-05-22T11:50:53.662Z,52.24
2019-05-22T11:51:53.667Z,52.05
2019-05-22T11:52:53.692Z,52.82
2019-05-22T11:54:07.940Z,52.80
2019-05-22T11:54:53.740Z,53.81
2019-05-22T11:55:53.759Z,53.61
2019-05-22T11:56:53.754Z,52.70
2019-05-22T11:57:53.773Z,51.50
2019-05-22T11:58:53.786Z,50.62
2019-05-22T11:59:53.806Z,50.43
2019-05-22T12:00:53.818Z,51.01
2019-05-22T12:01:53.835Z,50.07
2019-05-22T12:02:53.850Z,48.85
2019-05-22T12:03:53.878Z,49.24
2019-05-22T12:04:53.970Z,51.20
2019-05-22T12:05:53.904Z,54.43
2019-05-22T12:06:54.127Z,55.66
2019-05-22T12:07:53.934Z,57.53
2019-05-22T12:08:53.952Z,58.33
2019-05-22T12:09:53.969Z,58.40
2019-05-22T12:10:53.979Z,59.14
2019-05-22T12:11:54.010Z,59.65
2019-05-22T12:12:54.013Z,59.45
2019-05-22T12:13:54.046Z,58.88
2019-05-22T12:14:54.103Z,58.26
2019-05-22T12:15:54.062Z,56.16
2019-05-22T12:16:54.099Z,55.10
2019-05-22T12:17:54.102Z,55.78
2019-05-22T12:18:54.116Z,55.92
2019-05-22T12:19:54.113Z,57.62
2019-05-22T12:20:54.133Z,58.72
2019-05-22T12:21:54.228Z,56.74
2019-05-22T12:22:54.160Z,55.78
2019-05-22T12:23:54.179Z,55.40
2019-05-22T12:24:54.198Z,56.26
2019-05-22T12:25:54.201Z,54.41
2019-05-22T12:26:54.222Z,52.08
2019-05-22T12:27:54.237Z,49.99
2019-05-22T12:28:54.243Z,47.79
2019-05-22T12:29:54.260Z,47.38
2019-05-22T12:30:54.274Z,48.86
2019-05-22T12:31:54.336Z,50.12
2019-05-22T12:32:54.323Z,50.24
2019-05-22T12:33:54.323Z,49.22
2019-05-22T12:34:54.337Z,47.91
2019-05-22T12:35:54.368Z,46.89
2019-05-22T12:36:54.374Z,45.61
2019-05-22T12:37:54.392Z,45.80
2019-05-22T12:38:54.405Z,45.89
2019-05-22T12:39:54.421Z,46.09
2019-05-22T12:40:54.436Z,45.34
2019-05-22T12:41:54.456Z,45.51
2019-05-22T12:42:54.469Z,45.62
2019-05-22T12:43:54.499Z,44.75
2019-05-22T12:44:54.510Z,45.31
2019-05-22T12:45:54.521Z,45.20
2019-05-22T12:46:54.606Z,46.07
2019-05-22T12:47:54.562Z,46.39
2019-05-22T12:48:54.574Z,48.64
2019-05-22T12:49:54.619Z,50.60
2019-05-22T12:50:54.609Z,49.92
2019-05-22T12:51:54.636Z,49.92
2019-05-22T12:52:54.640Z,49.46
2019-05-22T12:53:54.655Z,48.27
2019-05-22T12:54:54.679Z,46.50
2019-05-22T12:55:54.693Z,44.70